Wilson Norfolk — 9HA2466 — position and weather

sailwx.info

Track history (hours):
 
Tides and Currents Weather Stations Pressure Air Temp Water Temp Dewpoint Dewpoint Depression Visibility Wind Speed Wind Dir Waves Ship Positions

Wilson Norfolk

Last reported at 2014-Aug-30 15:06 UTC. Time now 2014-Aug-30 16:30 UTC.
Position N 51°39' E 002°27'.

Length 123 m; draft 5.2 m.

Type: Cargo ship. MMSI: 248678000.

Date/timePositionNaut miles runAvg speedWind from/ knotsBaromVisibWave heightAir tempDewpointWater temp
2014-Aug-30 15:06N 51°39' E 002°27'814.1
2014-Aug-30 14:31N 51°33' E 002°18'1313.6
2014-Aug-30 13:33N 51°23' E 002°04'1312.9
2014-Aug-30 12:33N 51°14' E 001°50'1211.7
2014-Aug-30 11:33N 51°04' E 001°39'1110.7
2014-Aug-30 10:33N 50°55' E 001°30'3210.6
2014-Aug-30 07:33N 50°29' E 001°00'1111.5
2014-Aug-30 06:33N 50°21' E 000°48'5911.7
2014-Aug-30 01:33N 49°33' W 000°05'10 9.7
2014-Aug-30 00:33N 49°26' E 000°06'1211.9
2014-Aug-29 23:33N 49°27' E 000°24'8 7.3
2014-Aug-29 22:31N 49°26' E 000°35'  
2014-Aug-26 20:32N 49°27' E 000°33'1212.0
2014-Aug-26 19:33N 49°26' E 000°15'1212.0
2014-Aug-26 18:34N 49°28' W 000°03'5 4.7
2014-Aug-26 17:33N 49°32' W 000°08'6 5.9
2014-Aug-26 16:34N 49°37' W 000°04'7 6.5
2014-Aug-26 15:33N 49°42' E 000°02'5510.9
2014-Aug-26 10:33N 50°32' E 000°37'9 9.5
2014-Aug-26 09:33N 50°40' E 000°46'1110.6
2014-Aug-26 08:34N 50°47' E 000°58'1412.8
2014-Aug-26 07:30N 50°56' E 001°14'1414.5
2014-Aug-26 06:34N 51°05' E 001°30'1413.5
2014-Aug-26 05:34N 51°14' E 001°46'1211.9
2014-Aug-26 04:33N 51°24' E 001°56'1110.9
2014-Aug-26 03:33N 51°33' E 002°07'1110.8
2014-Aug-26 02:33N 51°41' E 002°18'13712.1
2014-Aug-25 15:16N 53°28' E 004°39'912.9
2014-Aug-25 14:34N 53°32' E 004°53'1413.5
2014-Aug-25 13:33N 53°36' E 005°15'1413.7
2014-Aug-25 12:33N 53°41' E 005°36'1313.2
2014-Aug-25 11:33N 53°45' E 005°58'5711.4
2014-Aug-25 06:34N 53°60' E 007°31'1211.7
2014-Aug-25 05:34N 54°01' E 007°51'1312.5
2014-Aug-25 04:33N 54°00' E 008°12'1414.3
2014-Aug-25 03:34N 53°58' E 008°36'1313.5
2014-Aug-25 02:33N 53°51' E 008°55'8 8.3
2014-Aug-25 01:33N 53°54' E 009°09'1 1.0
2014-Aug-25 00:33N 53°54' E 009°10'5 5.4
2014-Aug-24 23:33N 53°58' E 009°16'8 8.0
2014-Aug-24 22:33N 54°06' E 009°20'7 7.3
2014-Aug-24 21:33N 54°11' E 009°29'4 4.2
2014-Aug-24 20:33N 54°13' E 009°35'72 6.6
2014-Aug-24 09:33N 54°30' E 011°37'1111.3
2014-Aug-24 08:33N 54°27' E 011°55'1110.6
2014-Aug-24 07:33N 54°31' E 012°12'1311.9
2014-Aug-24 06:30N 54°41' E 012°26'1212.4
2014-Aug-24 05:33N 54°47' E 012°43'1312.8
2014-Aug-24 04:33N 54°48' E 013°05'1313.4
2014-Aug-24 03:33N 54°50' E 013°28'1312.6
2014-Aug-24 02:33N 54°49' E 013°50'1312.7
2014-Aug-24 01:33N 54°50' E 014°12'3912.3
2014-Aug-23 22:22N 54°49' E 015°20'159 8.5
2014-Aug-23 03:33N 54°38' E 019°55'0 0.0
2014-Aug-23 02:33N 54°38' E 019°55'0 0.0
2014-Aug-23 01:33N 54°38' E 019°55'1 1.2
2014-Aug-23 00:33N 54°38' E 019°53'10 9.6
2014-Aug-22 23:33N 54°44' E 019°40'1211.6
2014-Aug-22 22:33N 54°55' E 019°37'1312.6
2014-Aug-22 21:33N 55°08' E 019°41'1312.7
2014-Aug-22 20:33N 55°16' E 019°57'48 1.3
2014-Aug-21 07:34N 55°10' E 018°33'1414.4
2014-Aug-21 06:34N 55°04' E 018°10'1614.3
2014-Aug-21 05:26N 54°58' E 017°44'1414.2
2014-Aug-21 04:27N 54°53' E 017°21'9413.6
2014-Aug-20 21:33N 54°14' E 014°55'1313.4
2014-Aug-20 20:33N 54°07' E 014°35'1413.5
2014-Aug-20 19:34N 53°59' E 014°16'5 4.4
2014-Aug-20 18:31N 53°55' E 014°17'0 0.0
2014-Aug-20 17:31N 53°55' E 014°17'0 0.0
2014-Aug-20 16:31N 53°55' E 014°17'0 0.0
2014-Aug-20 15:31N 53°55' E 014°17'  
Track history (hours):
 
Tides and Currents Weather Stations Pressure Air Temp Water Temp Dewpoint Dewpoint Depression Visibility Wind Speed Wind Dir Waves Ship Positions

Wilson Norfolk

Last reported at 2014-Aug-30 15:06 UTC. Time now 2014-Aug-30 16:30 UTC.
Position N 51°39' E 002°27'.

Length 123 m; draft 5.2 m.

Type: Cargo ship. MMSI: 248678000.

Date/timePositionNaut miles runAvg speedWind from/ knotsBaromVisibWave heightAir tempDewpointWater temp
2014-Aug-30 15:06N 51°39' E 002°27'814.1
2014-Aug-30 14:31N 51°33' E 002°18'1313.6
2014-Aug-30 13:33N 51°23' E 002°04'1312.9
2014-Aug-30 12:33N 51°14' E 001°50'1211.7
2014-Aug-30 11:33N 51°04' E 001°39'1110.7
2014-Aug-30 10:33N 50°55' E 001°30'3210.6
2014-Aug-30 07:33N 50°29' E 001°00'1111.5
2014-Aug-30 06:33N 50°21' E 000°48'5911.7
2014-Aug-30 01:33N 49°33' W 000°05'10 9.7
2014-Aug-30 00:33N 49°26' E 000°06'1211.9
2014-Aug-29 23:33N 49°27' E 000°24'8 7.3
2014-Aug-29 22:31N 49°26' E 000°35'  
2014-Aug-26 20:32N 49°27' E 000°33'1212.0
2014-Aug-26 19:33N 49°26' E 000°15'1212.0
2014-Aug-26 18:34N 49°28' W 000°03'5 4.7
2014-Aug-26 17:33N 49°32' W 000°08'6 5.9
2014-Aug-26 16:34N 49°37' W 000°04'7 6.5
2014-Aug-26 15:33N 49°42' E 000°02'5510.9
2014-Aug-26 10:33N 50°32' E 000°37'9 9.5
2014-Aug-26 09:33N 50°40' E 000°46'1110.6
2014-Aug-26 08:34N 50°47' E 000°58'1412.8
2014-Aug-26 07:30N 50°56' E 001°14'1414.5
2014-Aug-26 06:34N 51°05' E 001°30'1413.5
2014-Aug-26 05:34N 51°14' E 001°46'1211.9
2014-Aug-26 04:33N 51°24' E 001°56'1110.9
2014-Aug-26 03:33N 51°33' E 002°07'1110.8
2014-Aug-26 02:33N 51°41' E 002°18'13712.1
2014-Aug-25 15:16N 53°28' E 004°39'912.9
2014-Aug-25 14:34N 53°32' E 004°53'1413.5
2014-Aug-25 13:33N 53°36' E 005°15'1413.7
2014-Aug-25 12:33N 53°41' E 005°36'1313.2
2014-Aug-25 11:33N 53°45' E 005°58'5711.4
2014-Aug-25 06:34N 53°60' E 007°31'1211.7
2014-Aug-25 05:34N 54°01' E 007°51'1312.5
2014-Aug-25 04:33N 54°00' E 008°12'1414.3
2014-Aug-25 03:34N 53°58' E 008°36'1313.5
2014-Aug-25 02:33N 53°51' E 008°55'8 8.3
2014-Aug-25 01:33N 53°54' E 009°09'1 1.0
2014-Aug-25 00:33N 53°54' E 009°10'5 5.4
2014-Aug-24 23:33N 53°58' E 009°16'8 8.0
2014-Aug-24 22:33N 54°06' E 009°20'7 7.3
2014-Aug-24 21:33N 54°11' E 009°29'4 4.2
2014-Aug-24 20:33N 54°13' E 009°35'72 6.6
2014-Aug-24 09:33N 54°30' E 011°37'1111.3
2014-Aug-24 08:33N 54°27' E 011°55'1110.6
2014-Aug-24 07:33N 54°31' E 012°12'1311.9
2014-Aug-24 06:30N 54°41' E 012°26'1212.4
2014-Aug-24 05:33N 54°47' E 012°43'1312.8
2014-Aug-24 04:33N 54°48' E 013°05'1313.4
2014-Aug-24 03:33N 54°50' E 013°28'1312.6
2014-Aug-24 02:33N 54°49' E 013°50'1312.7
2014-Aug-24 01:33N 54°50' E 014°12'3912.3
2014-Aug-23 22:22N 54°49' E 015°20'159 8.5
2014-Aug-23 03:33N 54°38' E 019°55'0 0.0
2014-Aug-23 02:33N 54°38' E 019°55'0 0.0
2014-Aug-23 01:33N 54°38' E 019°55'1 1.2
2014-Aug-23 00:33N 54°38' E 019°53'10 9.6
2014-Aug-22 23:33N 54°44' E 019°40'1211.6
2014-Aug-22 22:33N 54°55' E 019°37'1312.6
2014-Aug-22 21:33N 55°08' E 019°41'1312.7
2014-Aug-22 20:33N 55°16' E 019°57'48 1.3
2014-Aug-21 07:34N 55°10' E 018°33'1414.4
2014-Aug-21 06:34N 55°04' E 018°10'1614.3
2014-Aug-21 05:26N 54°58' E 017°44'1414.2
2014-Aug-21 04:27N 54°53' E 017°21'9413.6
2014-Aug-20 21:33N 54°14' E 014°55'1313.4
2014-Aug-20 20:33N 54°07' E 014°35'1413.5
2014-Aug-20 19:34N 53°59' E 014°16'5 4.4
2014-Aug-20 18:31N 53°55' E 014°17'0 0.0
2014-Aug-20 17:31N 53°55' E 014°17'0 0.0
2014-Aug-20 16:31N 53°55' E 014°17'0 0.0
2014-Aug-20 15:31N 53°55' E 014°17'  

Dump ship's entire track history